Time;durP1;ratioP1;P1;durP2;ratioP2;P2;SDS_P1;SDS_P2;PMS_P1;PMS_P2;Temp;Humidity;BMP_temperature;BMP_pressure;BME280_temperature;BME280_humidity;BME280_pressure;Samples;Min_cycle;Max_cycle;Signal;HPM_P1;HPM_P2
2022/12/19 00:01:29;;;;;;;2.47;2.10;;;20.60;34.80;;;;;;5094566;28;20063;-9
2022/12/19 00:03:58;;;;;;;1.80;1.70;;;20.60;34.80;;;;;;5095024;28;20094;-10
2022/12/19 00:06:25;;;;;;;2.42;2.22;;;20.60;34.80;;;;;;5094389;28;20048;-10
2022/12/19 00:08:52;;;;;;;2.80;2.60;;;20.60;34.80;;;;;;5094479;28;20056;-9
2022/12/19 00:11:20;;;;;;;3.00;2.70;;;20.60;34.70;;;;;;5094365;28;20060;-10
2022/12/19 00:13:46;;;;;;;2.40;2.20;;;20.60;34.70;;;;;;5094071;28;20059;-9
2022/12/19 00:16:20;;;;;;;2.90;2.30;;;20.60;34.70;;;;;;5094209;28;20535;-9
2022/12/19 00:18:47;;;;;;;2.70;2.38;;;20.60;34.70;;;;;;5093348;28;20051;-10
2022/12/19 00:21:19;;;;;;;2.33;2.00;;;20.60;34.70;;;;;;5094146;28;20048;-10
2022/12/19 00:23:45;;;;;;;2.30;2.10;;;20.60;34.70;;;;;;5094512;28;20044;-10
2022/12/19 00:26:18;;;;;;;2.58;2.38;;;20.60;34.70;;;;;;5094202;28;20184;-10
2022/12/19 00:28:48;;;;;;;1.80;1.70;;;20.60;34.70;;;;;;5075031;28;20162;-10
2022/12/19 00:31:16;;;;;;;2.28;2.00;;;20.60;34.70;;;;;;5093213;28;20059;-10
2022/12/19 00:33:42;;;;;;;3.50;2.42;;;20.60;34.70;;;;;;5093944;28;20096;-10
2022/12/19 00:36:13;;;;;;;2.33;2.13;;;20.60;34.70;;;;;;5093969;28;20102;-9
2022/12/19 00:38:42;;;;;;;2.42;2.22;;;20.60;34.80;;;;;;5075255;28;20052;-10
2022/12/19 00:41:12;;;;;;;2.65;2.20;;;20.60;34.70;;;;;;5075921;28;20044;-10
2022/12/19 00:43:38;;;;;;;2.13;1.90;;;20.60;34.80;;;;;;5093850;28;20039;-9
2022/12/19 00:46:07;;;;;;;2.25;2.05;;;20.60;34.70;;;;;;5075604;28;20059;-10
2022/12/19 00:48:32;;;;;;;2.42;2.22;;;20.60;34.70;;;;;;5093946;28;20169;-9
2022/12/19 00:51:07;;;;;;;2.00;1.90;;;20.60;34.70;;;;;;5088517;28;20064;-9
2022/12/19 00:53:34;;;;;;;1.75;1.65;;;20.60;34.70;;;;;;5091123;28;20135;-10
2022/12/19 00:56:07;;;;;;;2.65;2.38;;;20.60;34.70;;;;;;5093753;28;20056;-9
2022/12/19 00:58:34;;;;;;;2.50;2.15;;;20.60;34.70;;;;;;5093592;28;20444;-10
2022/12/19 01:01:06;;;;;;;2.30;2.10;;;20.60;34.70;;;;;;5093644;28;20140;-10
2022/12/19 01:03:32;;;;;;;2.75;2.33;;;20.60;34.70;;;;;;5093674;28;20093;-10
2022/12/19 01:05:58;;;;;;;2.08;1.88;;;20.60;34.70;;;;;;5093404;28;20134;-10
2022/12/19 01:08:24;;;;;;;2.17;1.98;;;20.60;34.70;;;;;;5093362;28;20736;-10
2022/12/19 01:10:50;;;;;;;2.47;2.00;;;20.60;34.70;;;;;;5093147;28;20052;-9
2022/12/19 01:13:18;;;;;;;2.17;2.00;;;20.60;34.70;;;;;;5093427;28;20056;-9
2022/12/19 01:15:44;;;;;;;2.25;2.05;;;20.60;34.60;;;;;;5093233;28;20052;-9
2022/12/19 01:18:10;;;;;;;2.33;2.08;;;20.60;35.20;;;;;;5091919;28;20401;-10
2022/12/19 01:20:41;;;;;;;3.55;2.15;;;20.60;34.70;;;;;;5093194;28;20056;-10
2022/12/19 01:23:08;;;;;;;2.92;2.53;;;20.60;34.60;;;;;;5093236;28;20052;-10
2022/12/19 01:25:35;;;;;;;3.45;2.20;;;20.60;34.60;;;;;;5093159;28;20044;-10
2022/12/19 01:28:05;;;;;;;2.45;2.25;;;20.60;34.70;;;;;;5074962;28;20140;-9
2022/12/19 01:30:31;;;;;;;3.03;2.55;;;20.60;34.70;;;;;;5093047;28;20044;-10
2022/12/19 01:32:58;;;;;;;2.13;1.98;;;20.60;34.70;;;;;;5093080;28;20048;-9
2022/12/19 01:35:26;;;;;;;2.40;2.00;;;20.60;34.70;;;;;;5058532;28;20047;-9
2022/12/19 01:37:53;;;;;;;2.55;2.35;;;20.60;34.70;;;;;;5074653;28;20052;-9
2022/12/19 01:40:20;;;;;;;2.03;1.83;;;20.60;34.70;;;;;;5092994;28;20043;-10
2022/12/19 01:42:47;;;;;;;2.08;1.90;;;20.60;34.70;;;;;;5074692;28;20048;-9
2022/12/19 01:45:15;;;;;;;2.70;2.45;;;20.60;34.70;;;;;;5092832;28;20089;-10
2022/12/19 01:47:45;;;;;;;2.80;2.35;;;20.60;34.70;;;;;;5092982;28;20052;-10
2022/12/19 01:50:22;;;;;;;2.30;2.08;;;20.60;34.70;;;;;;5092938;28;20555;-10
2022/12/19 01:52:51;;;;;;;2.53;2.08;;;20.60;34.70;;;;;;5092818;28;20447;-10
2022/12/19 01:55:18;;;;;;;2.30;2.10;;;20.60;35.20;;;;;;5092647;28;20044;-10
2022/12/19 01:57:44;;;;;;;2.30;2.10;;;20.60;34.70;;;;;;5092861;28;20515;-10
2022/12/19 02:00:10;;;;;;;2.50;2.30;;;20.60;34.70;;;;;;5092644;28;20052;-9
2022/12/19 02:02:48;;;;;;;1.85;1.75;;;20.60;34.70;;;;;;5092726;28;20516;-9
2022/12/19 02:05:15;;;;;;;2.30;2.10;;;20.60;34.70;;;;;;5074248;28;20105;-9
2022/12/19 02:07:43;;;;;;;2.45;2.15;;;20.60;34.70;;;;;;5074397;28;20052;-10
2022/12/19 02:10:08;;;;;;;2.10;1.90;;;20.60;34.70;;;;;;5074054;28;20138;-10
2022/12/19 02:12:38;;;;;;;2.30;1.90;;;20.60;34.60;;;;;;5091201;28;20051;-10
2022/12/19 02:15:07;;;;;;;2.10;1.90;;;20.60;34.70;;;;;;5091134;28;20568;-9
2022/12/19 02:17:38;;;;;;;2.78;2.05;;;20.60;34.70;;;;;;5074257;28;20052;-10
2022/12/19 02:20:39;;;;;;;2.22;2.00;;;20.60;34.70;;;;;;5091397;28;20067;-9
2022/12/19 02:23:21;;;;;;;2.83;2.53;;;20.60;34.70;;;;;;5090933;28;20391;-9
2022/12/19 02:26:13;;;;;;;2.75;2.33;;;20.60;34.70;;;;;;5090960;28;20044;-10
2022/12/19 02:29:07;;;;;;;2.25;2.05;;;20.60;34.70;;;;;;5034075;28;20052;-10
2022/12/19 02:31:45;;;;;;;2.88;2.58;;;20.60;34.70;;;;;;5091494;28;20062;-10
2022/12/19 02:34:20;;;;;;;2.42;2.22;;;20.60;34.70;;;;;;5091399;28;20097;-9
2022/12/19 02:37:17;;;;;;;2.28;1.95;;;20.60;34.60;;;;;;5073976;28;20139;-9
2022/12/19 02:40:13;;;;;;;2.67;2.40;;;20.60;34.70;;;;;;5073825;28;20413;-10
2022/12/19 02:42:44;;;;;;;2.25;2.05;;;20.60;34.70;;;;;;5092150;28;20114;-9
2022/12/19 02:45:13;;;;;;;2.23;2.03;;;20.60;34.70;;;;;;5092446;28;20509;-10
2022/12/19 02:47:41;;;;;;;2.55;2.33;;;20.60;34.70;;;;;;5090609;28;20431;-10
2022/12/19 02:50:07;;;;;;;2.55;2.33;;;20.60;34.60;;;;;;5073852;28;20066;-10
2022/12/19 02:52:33;;;;;;;2.40;2.20;;;20.60;34.70;;;;;;5091045;28;20052;-9
2022/12/19 02:55:08;;;;;;;2.60;2.40;;;20.60;34.60;;;;;;5090545;28;20052;-9
2022/12/19 02:57:42;;;;;;;2.65;2.45;;;20.60;34.60;;;;;;5073748;28;20056;-10
2022/12/19 03:00:12;;;;;;;3.38;2.55;;;20.60;34.60;;;;;;5092240;28;20052;-10
2022/12/19 03:02:41;;;;;;;2.30;2.10;;;20.60;34.60;;;;;;5090614;28;20056;-10
2022/12/19 03:05:16;;;;;;;2.67;2.25;;;20.60;34.70;;;;;;5091854;28;20071;-10
2022/12/19 03:07:47;;;;;;;2.50;2.30;;;20.60;34.60;;;;;;5090325;28;20056;-10
2022/12/19 03:10:27;;;;;;;2.15;1.95;;;20.60;34.60;;;;;;5090763;28;20071;-10
2022/12/19 03:12:58;;;;;;;2.42;2.22;;;20.60;34.60;;;;;;5090756;28;20490;-9
2022/12/19 03:15:24;;;;;;;2.70;2.42;;;20.60;34.60;;;;;;5090460;28;20101;-9
2022/12/19 03:17:57;;;;;;;2.75;2.47;;;20.60;34.60;;;;;;5093304;28;20078;-10
2022/12/19 03:20:43;;;;;;;;;;;20.60;34.60;;;;;;5077542;28;20090;-10
2022/12/19 03:23:10;;;;;;;2.22;2.03;;;20.60;34.60;;;;;;5095044;28;19916;-10
2022/12/19 03:25:36;;;;;;;3.55;2.40;;;20.60;34.60;;;;;;5093050;28;20048;-9
2022/12/19 03:28:09;;;;;;;2.50;2.30;;;20.60;34.60;;;;;;5094842;28;20063;-9
2022/12/19 03:30:35;;;;;;;2.88;2.03;;;20.60;35.20;;;;;;5095328;28;20051;-9
2022/12/19 03:33:02;;;;;;;2.63;2.40;;;20.60;34.60;;;;;;5094920;28;20444;-9
2022/12/19 03:35:30;;;;;;;2.75;2.22;;;20.60;34.70;;;;;;5095067;28;20387;-10
2022/12/19 03:37:59;;;;;;;2.70;2.50;;;20.60;34.60;;;;;;5094655;28;20048;-10
2022/12/19 03:40:27;;;;;;;2.35;2.15;;;20.60;34.70;;;;;;5094756;28;20490;-10
2022/12/19 03:43:07;;;;;;;2.55;2.20;;;20.60;34.60;;;;;;5094852;28;20129;-9
2022/12/19 03:45:33;;;;;;;1.88;1.77;;;20.60;34.70;;;;;;5095077;28;20059;-9
2022/12/19 03:48:06;;;;;;;2.25;2.05;;;20.60;34.60;;;;;;5094649;28;20044;-10
2022/12/19 03:50:44;;;;;;;2.30;2.10;;;20.60;34.60;;;;;;5094561;28;20455;-10
2022/12/19 03:53:28;;;;;;;2.63;2.30;;;20.60;34.60;;;;;;5094565;28;20048;-10
2022/12/19 03:56:05;;;;;;;2.58;2.38;;;20.60;34.60;;;;;;5094689;28;20040;-9
2022/12/19 03:58:37;;;;;;;2.25;2.05;;;20.60;34.60;;;;;;5094748;28;20569;-9
2022/12/19 04:01:04;;;;;;;2.60;2.35;;;20.60;34.60;;;;;;5094585;28;20086;-10
2022/12/19 04:03:31;;;;;;;2.30;2.10;;;20.60;34.60;;;;;;5094570;28;20128;-9
2022/12/19 04:05:59;;;;;;;2.83;2.35;;;20.60;34.60;;;;;;5094414;28;20397;-9
2022/12/19 04:08:27;;;;;;;2.50;2.30;;;20.60;34.60;;;;;;5094275;28;20052;-10
2022/12/19 04:11:17;;;;;;;2.10;1.90;;;20.60;34.60;;;;;;5094362;28;20068;-10
2022/12/19 04:13:55;;;;;;;2.47;2.28;;;20.60;34.60;;;;;;5094639;28;20052;-10
2022/12/19 04:16:49;;;;;;;2.80;2.50;;;20.60;34.60;;;;;;5094038;28;20070;-10
2022/12/19 04:19:29;;;;;;;2.30;2.10;;;20.60;34.60;;;;;;5094019;28;20056;-9
2022/12/19 04:22:03;;;;;;;2.58;2.30;;;20.60;34.60;;;;;;5094223;28;20527;-10
2022/12/19 04:24:34;;;;;;;2.42;2.22;;;20.60;34.70;;;;;;5094587;28;20043;-10
2022/12/19 04:27:02;;;;;;;2.40;2.20;;;20.60;34.60;;;;;;5094168;28;20535;-9
2022/12/19 04:29:31;;;;;;;2.63;2.42;;;20.60;34.60;;;;;;5094421;28;20520;-9
2022/12/19 04:31:57;;;;;;;2.72;2.40;;;20.60;34.60;;;;;;5094358;28;20516;-10
2022/12/19 04:34:23;;;;;;;2.38;2.17;;;20.60;34.60;;;;;;5093815;28;20071;-9
2022/12/19 04:36:50;;;;;;;2.47;2.20;;;20.60;34.60;;;;;;5093935;28;20051;-9
2022/12/19 04:39:15;;;;;;;2.38;2.17;;;20.60;34.60;;;;;;5093951;28;20048;-10
2022/12/19 04:41:41;;;;;;;2.40;2.20;;;20.60;34.60;;;;;;5093921;28;20127;-10
2022/12/19 04:44:07;;;;;;;2.60;2.40;;;20.60;34.60;;;;;;5093738;28;20072;-9
2022/12/19 04:46:32;;;;;;;2.70;2.22;;;20.60;34.60;;;;;;5093844;28;20091;-9
2022/12/19 04:48:58;;;;;;;2.40;2.20;;;20.60;34.60;;;;;;5093761;28;20109;-10
2022/12/19 04:51:24;;;;;;;2.35;2.15;;;20.60;34.50;;;;;;5094010;28;20052;-10
2022/12/19 04:53:49;;;;;;;2.40;2.20;;;20.60;34.60;;;;;;5093923;28;20047;-10
2022/12/19 04:56:15;;;;;;;2.78;2.33;;;20.60;34.60;;;;;;5093677;28;20413;-10
2022/12/19 04:58:41;;;;;;;2.45;2.25;;;20.60;34.60;;;;;;5093580;28;20126;-9
2022/12/19 05:01:07;;;;;;;3.25;2.60;;;20.50;34.60;;;;;;5093619;28;20099;-9
2022/12/19 05:03:35;;;;;;;2.30;2.10;;;20.50;34.60;;;;;;5093548;28;20052;-10
2022/12/19 05:06:07;;;;;;;2.90;2.30;;;20.60;34.60;;;;;;5075542;28;20217;-10
2022/12/19 05:08:33;;;;;;;2.42;2.22;;;20.50;34.60;;;;;;5093553;28;20076;-9
2022/12/19 05:11:01;;;;;;;2.13;1.92;;;20.50;34.60;;;;;;5093936;28;20456;-9
2022/12/19 05:13:27;;;;;;;2.55;2.33;;;20.50;34.70;;;;;;5092016;28;20135;-10
2022/12/19 05:15:57;;;;;;;2.38;2.17;;;20.50;34.60;;;;;;5092413;28;20051;-10
2022/12/19 05:18:23;;;;;;;2.42;2.22;;;20.50;34.60;;;;;;5093208;28;20136;-9
2022/12/19 05:20:49;;;;;;;2.47;2.10;;;20.50;34.60;;;;;;5093100;28;20413;-10
2022/12/19 05:23:15;;;;;;;3.10;2.35;;;20.50;34.60;;;;;;5093652;28;20063;-10
2022/12/19 05:25:40;;;;;;;2.20;1.98;;;20.50;34.60;;;;;;5093390;28;20109;-9
2022/12/19 05:28:06;;;;;;;2.33;2.05;;;20.50;34.60;;;;;;5092893;28;20152;-10
2022/12/19 05:30:31;;;;;;;2.25;2.05;;;20.50;34.60;;;;;;5093069;28;20044;-10
2022/12/19 05:32:57;;;;;;;2.50;2.30;;;20.50;34.70;;;;;;5093369;28;20147;-10
2022/12/19 05:35:22;;;;;;;3.13;2.50;;;20.50;34.60;;;;;;5093274;28;20447;-10
2022/12/19 05:37:48;;;;;;;2.30;2.10;;;20.50;34.60;;;;;;5092913;28;20056;-9
2022/12/19 05:40:14;;;;;;;2.05;1.95;;;20.50;34.60;;;;;;5092147;28;20047;-9
2022/12/19 05:42:39;;;;;;;2.80;2.30;;;20.50;34.60;;;;;;5092874;28;20100;-10
2022/12/19 05:45:05;;;;;;;2.80;2.50;;;20.50;34.60;;;;;;5092976;28;20085;-10
2022/12/19 05:47:31;;;;;;;3.13;2.78;;;20.50;34.60;;;;;;5093083;28;20441;-10
2022/12/19 05:49:57;;;;;;;2.45;2.00;;;20.50;34.60;;;;;;5092825;28;20190;-10
2022/12/19 05:52:23;;;;;;;2.55;2.10;;;20.50;34.60;;;;;;5092866;28;20149;-9
2022/12/19 05:54:49;;;;;;;2.40;2.20;;;20.50;34.70;;;;;;5093021;28;20131;-10
2022/12/19 05:57:15;;;;;;;2.65;2.28;;;20.50;34.70;;;;;;5092756;28;20071;-10
2022/12/19 05:59:40;;;;;;;3.13;2.35;;;20.50;34.70;;;;;;5092780;28;20058;-10
2022/12/19 06:02:06;;;;;;;2.47;2.28;;;20.50;34.70;;;;;;5092640;28;20051;-10
2022/12/19 06:04:32;;;;;;;2.55;2.10;;;20.50;34.70;;;;;;5072718;28;20049;-10
2022/12/19 06:06:58;;;;;;;1.92;1.83;;;20.50;34.70;;;;;;5092556;28;20048;-10
2022/12/19 06:09:24;;;;;;;2.45;2.10;;;20.50;34.70;;;;;;5092649;28;20060;-10
2022/12/19 06:11:49;;;;;;;2.90;2.60;;;20.50;34.60;;;;;;5092920;28;20044;-10
2022/12/19 06:14:15;;;;;;;2.42;2.22;;;20.50;34.60;;;;;;5092842;28;20044;-10
2022/12/19 06:16:41;;;;;;;2.45;2.25;;;20.50;34.60;;;;;;5092285;28;20052;-10
2022/12/19 06:19:07;;;;;;;2.42;2.22;;;20.50;34.60;;;;;;5092352;28;20056;-10
2022/12/19 06:21:32;;;;;;;2.80;2.40;;;20.50;34.70;;;;;;5092412;28;20143;-10
2022/12/19 06:23:58;;;;;;;2.65;2.45;;;20.50;34.70;;;;;;5092482;28;20131;-10
2022/12/19 06:26:24;;;;;;;2.50;2.10;;;20.50;34.70;;;;;;5092404;28;20051;-9
2022/12/19 06:28:51;;;;;;;2.67;2.47;;;20.60;35.30;;;;;;5092404;28;20056;-10
2022/12/19 06:31:18;;;;;;;2.53;2.30;;;20.50;35.20;;;;;;5092292;28;20078;-10
2022/12/19 06:33:44;;;;;;;2.58;2.10;;;20.50;34.70;;;;;;5092231;28;20073;-10
2022/12/19 06:36:23;;;;;;;2.45;2.10;;;20.50;34.70;;;;;;5092272;28;20139;-10
2022/12/19 06:38:49;;;;;;;2.55;2.25;;;20.50;34.70;;;;;;5092817;28;20052;-10
2022/12/19 06:44:03;;;;;;;2.50;2.22;;;20.50;34.60;;;;;;5092245;28;20083;-10
2022/12/19 06:46:29;;;;;;;2.72;2.45;;;20.50;34.70;;;;;;5092029;28;20075;-9
2022/12/19 06:48:55;;;;;;;2.97;2.25;;;20.50;34.60;;;;;;5092191;28;20490;-10
2022/12/19 06:51:20;;;;;;;2.88;2.53;;;20.60;34.60;;;;;;5094879;28;20451;-9
2022/12/19 06:53:46;;;;;;;2.40;2.20;;;20.60;34.60;;;;;;5095446;28;20062;-9
2022/12/19 06:56:14;;;;;;;2.03;1.85;;;20.60;34.60;;;;;;5095467;28;20051;-9
2022/12/19 06:58:40;;;;;;;2.30;2.10;;;20.60;34.60;;;;;;5095438;28;20536;-10
2022/12/19 07:01:05;;;;;;;2.60;2.38;;;20.60;34.60;;;;;;5095458;28;20075;-10
2022/12/19 07:03:37;;;;;;;2.40;2.20;;;20.60;34.50;;;;;;5095322;28;20051;-9
2022/12/19 07:06:05;;;;;;;2.88;2.30;;;20.60;34.50;;;;;;5095412;28;20056;-10
2022/12/19 07:08:31;;;;;;;2.03;1.83;;;20.60;34.60;;;;;;5095109;28;20048;-10
2022/12/19 07:10:57;;;;;;;2.15;1.95;;;20.60;34.50;;;;;;5093779;28;20585;-9
2022/12/19 07:13:23;;;;;;;3.22;2.60;;;20.60;34.50;;;;;;5095205;28;20563;-10
2022/12/19 07:15:51;;;;;;;2.67;2.47;;;20.60;34.50;;;;;;5095025;28;20051;-9
2022/12/19 07:18:17;;;;;;;2.55;2.35;;;20.60;34.50;;;;;;5094910;28;20071;-9
2022/12/19 07:20:43;;;;;;;2.33;1.90;;;20.60;34.50;;;;;;5094883;28;20447;-10
2022/12/19 07:23:15;;;;;;;2.65;2.45;;;20.60;34.40;;;;;;5094773;28;20059;-10
2022/12/19 07:25:41;;;;;;;2.35;2.15;;;20.70;34.40;;;;;;5095066;28;20390;-10
2022/12/19 07:28:07;;;;;;;3.40;2.55;;;20.60;34.30;;;;;;5094826;28;20112;-10
2022/12/19 07:30:33;;;;;;;4.07;2.42;;;20.60;34.30;;;;;;5094977;28;20553;-10
2022/12/19 07:32:59;;;;;;;3.30;2.10;;;20.60;34.70;;;;;;5094730;28;20082;-10
2022/12/19 07:35:25;;;;;;;3.05;2.78;;;20.60;34.20;;;;;;5095024;28;20044;-10
2022/12/19 07:37:50;;;;;;;2.60;2.40;;;20.60;34.20;;;;;;5094709;28;20421;-10
2022/12/19 07:40:17;;;;;;;3.28;2.97;;;20.60;34.20;;;;;;5094761;28;20596;-10
2022/12/19 07:42:43;;;;;;;3.50;3.05;;;20.60;34.20;;;;;;5094708;28;20106;-10
2022/12/19 07:45:10;;;;;;;3.55;2.80;;;20.60;34.20;;;;;;5094607;28;20044;-10
2022/12/19 07:47:35;;;;;;;2.90;2.58;;;20.60;34.30;;;;;;5094573;28;20100;-10
2022/12/19 07:50:01;;;;;;;2.90;2.50;;;20.60;34.20;;;;;;5094878;28;20052;-10
2022/12/19 07:52:26;;;;;;;3.30;2.75;;;20.60;34.20;;;;;;5095060;28;20128;-10
2022/12/19 07:54:52;;;;;;;3.10;2.80;;;20.60;34.30;;;;;;5094368;28;20516;-10
2022/12/19 07:57:18;;;;;;;3.22;2.85;;;20.50;34.20;;;;;;5094367;28;20075;-10
2022/12/19 07:59:45;;;;;;;2.72;2.50;;;20.60;34.30;;;;;;5094530;28;20117;-10
2022/12/19 08:02:11;;;;;;;3.92;2.92;;;20.50;34.30;;;;;;5093747;28;20126;-10
2022/12/19 08:04:37;;;;;;;3.85;2.97;;;20.60;34.30;;;;;;5094240;28;20514;-10
2022/12/19 08:07:03;;;;;;;3.15;2.67;;;20.50;34.20;;;;;;5094407;28;20047;-10
2022/12/19 08:09:29;;;;;;;3.00;2.72;;;20.60;34.30;;;;;;5094278;28;20048;-10
2022/12/19 08:11:55;;;;;;;3.88;2.78;;;20.60;34.30;;;;;;5094331;28;20052;-10
2022/12/19 08:14:20;;;;;;;4.15;3.13;;;20.60;34.30;;;;;;5094371;28;20051;-10
2022/12/19 08:16:46;;;;;;;4.22;3.20;;;20.60;34.30;;;;;;5094222;28;20058;-10
2022/12/19 08:19:12;;;;;;;3.80;2.45;;;20.60;34.30;;;;;;5094119;28;20127;-10
2022/12/19 08:21:38;;;;;;;3.90;3.00;;;20.60;34.30;;;;;;5093047;28;20044;-10
2022/12/19 08:24:04;;;;;;;5.75;3.30;;;20.60;34.30;;;;;;5094113;28;20101;-10
2022/12/19 08:26:29;;;;;;;3.70;3.03;;;20.60;34.40;;;;;;5094082;28;20048;-10
2022/12/19 08:28:56;;;;;;;3.90;3.03;;;20.60;34.30;;;;;;5093891;28;20501;-10
2022/12/19 08:31:24;;;;;;;3.72;3.15;;;20.60;34.40;;;;;;5093936;28;20460;-10
2022/12/19 08:33:54;;;;;;;3.78;2.90;;;20.60;34.40;;;;;;5093917;28;20494;-10
2022/12/19 08:36:21;;;;;;;4.13;3.25;;;20.60;34.40;;;;;;5093425;28;20464;-11
2022/12/19 08:38:48;;;;;;;3.70;2.95;;;20.60;34.40;;;;;;5093903;28;20071;-10
2022/12/19 08:41:17;;;;;;;4.05;3.20;;;20.60;34.40;;;;;;5093808;28;20056;-10
2022/12/19 08:43:48;;;;;;;3.35;3.05;;;20.60;34.30;;;;;;5093715;28;20051;-10
2022/12/19 08:46:13;;;;;;;3.42;3.13;;;20.70;34.40;;;;;;5094051;28;20059;-10
2022/12/19 08:48:39;;;;;;;4.45;2.85;;;20.60;34.40;;;;;;5093506;28;20505;-10
2022/12/19 08:51:06;;;;;;;4.30;2.85;;;20.60;34.40;;;;;;5093797;28;20075;-10
2022/12/19 08:53:36;;;;;;;3.53;2.97;;;20.60;34.40;;;;;;5093595;28;20101;-10
2022/12/19 08:56:07;;;;;;;3.63;3.10;;;20.60;34.40;;;;;;5093517;28;20174;-10
2022/12/19 08:58:33;;;;;;;3.90;2.78;;;20.60;34.50;;;;;;5075278;28;20056;-10
2022/12/19 09:01:03;;;;;;;4.35;3.42;;;20.70;35.00;;;;;;5075208;28;20056;-10
2022/12/19 09:03:31;;;;;;;2.58;2.38;;;20.70;34.50;;;;;;5093436;28;20060;-10
2022/12/19 09:06:00;;;;;;;3.55;3.03;;;20.70;34.50;;;;;;5093469;28;20079;-10
2022/12/19 09:08:27;;;;;;;3.53;3.05;;;20.70;34.50;;;;;;5093524;28;20051;-10
2022/12/19 09:11:14;;;;;;;5.18;3.58;;;20.70;34.50;;;;;;5092980;28;20052;-10
2022/12/19 09:13:40;;;;;;;10.07;3.40;;;20.70;34.50;;;;;;5073868;28;20425;-10
2022/12/19 09:16:20;;;;;;;4.53;3.17;;;20.70;34.50;;;;;;5093163;28;20044;-10
2022/12/19 09:18:49;;;;;;;4.55;3.13;;;20.70;34.50;;;;;;5089650;28;20140;-10
2022/12/19 09:21:17;;;;;;;4.35;3.40;;;20.70;34.40;;;;;;5093238;28;20097;-10
2022/12/19 09:23:48;;;;;;;3.47;2.92;;;20.70;34.50;;;;;;5093207;28;20142;-10
2022/12/19 09:26:14;;;;;;;3.13;2.83;;;20.60;35.00;;;;;;5093016;28;20508;-10
2022/12/19 09:28:40;;;;;;;4.30;3.45;;;20.70;34.50;;;;;;5093423;28;20059;-10
2022/12/19 09:31:11;;;;;;;3.15;2.75;;;20.60;34.40;;;;;;5092957;28;20057;-10
2022/12/19 09:33:39;;;;;;;3.88;3.08;;;20.60;34.90;;;;;;5093111;28;20134;-10
2022/12/19 09:36:07;;;;;;;4.47;3.53;;;20.60;34.80;;;;;;5092919;28;20056;-10
2022/12/19 09:38:34;;;;;;;7.82;3.17;;;20.60;34.50;;;;;;5093286;28;20105;-10
2022/12/19 09:41:20;;;;;;;6.72;3.15;;;20.60;35.10;;;;;;5092867;28;20048;-10
2022/12/19 09:44:30;;;;;;;3.22;2.83;;;20.60;34.60;;;;;;5092843;28;20048;-11
2022/12/19 09:47:02;;;;;;;4.18;3.30;;;20.60;34.60;;;;;;5092763;28;20130;-11
2022/12/19 09:49:28;;;;;;;3.42;3.10;;;20.60;35.10;;;;;;5074639;28;20040;-11
2022/12/19 09:52:15;;;;;;;3.42;2.78;;;20.60;34.70;;;;;;5092211;28;20143;-11
2022/12/19 09:55:11;;;;;;;5.30;3.05;;;20.60;34.60;;;;;;5092659;28;20478;-11
2022/12/19 09:57:55;;;;;;;3.13;2.60;;;20.60;34.60;;;;;;5092426;28;20406;-11
2022/12/19 10:00:21;;;;;;;4.38;3.20;;;20.60;34.60;;;;;;5092778;28;20129;-11
2022/12/19 10:03:01;;;;;;;3.30;3.00;;;20.60;34.60;;;;;;5092354;28;20060;-12
2022/12/19 10:05:40;;;;;;;3.90;3.08;;;20.60;34.60;;;;;;5092002;28;20039;-12
2022/12/19 10:08:18;;;;;;;3.42;2.80;;;20.60;34.70;;;;;;5092379;28;20052;-12
2022/12/19 10:11:15;;;;;;;3.05;2.75;;;20.60;34.60;;;;;;5091795;28;20156;-12
2022/12/19 10:14:19;;;;;;;3.10;2.80;;;20.60;34.60;;;;;;5075786;28;20055;-12
2022/12/19 10:17:14;;;;;;;4.25;3.35;;;20.60;34.60;;;;;;5092683;28;20500;-12
2022/12/19 10:20:17;;;;;;;5.10;2.83;;;20.60;34.70;;;;;;5092298;28;20467;-12
2022/12/19 10:22:58;;;;;;;2.92;2.63;;;20.60;34.60;;;;;;5092607;28;20458;-11
2022/12/19 10:25:42;;;;;;;4.30;2.70;;;20.60;34.70;;;;;;5093582;28;20044;-12
2022/12/19 10:28:18;;;;;;;3.30;3.00;;;20.60;34.70;;;;;;5095673;28;20055;-12
2022/12/19 10:30:56;;;;;;;3.97;3.15;;;20.60;34.70;;;;;;5094187;28;20468;-11
2022/12/19 10:33:37;;;;;;;5.72;3.33;;;20.60;34.70;;;;;;5096243;28;20059;-10
2022/12/19 10:36:09;;;;;;;3.10;2.80;;;20.60;34.70;;;;;;5095694;28;20074;-11
2022/12/19 10:38:37;;;;;;;3.88;3.10;;;20.60;34.70;;;;;;5096021;28;20413;-10
2022/12/19 10:41:17;;;;;;;3.15;2.80;;;20.60;34.70;;;;;;5095579;28;20120;-11
2022/12/19 10:43:53;;;;;;;4.82;2.75;;;20.60;34.70;;;;;;5095503;28;20052;-11
2022/12/19 10:46:44;;;;;;;3.83;2.85;;;20.60;34.70;;;;;;5095588;28;20047;-11
2022/12/19 10:49:15;;;;;;;;;;;20.60;34.70;;;;;;5095836;28;20574;-11
2022/12/19 10:51:54;;;;;;;5.35;2.72;;;20.60;34.70;;;;;;5095710;28;19923;-10
2022/12/19 10:54:21;;;;;;;3.60;2.78;;;20.60;34.60;;;;;;5095504;28;20074;-10
2022/12/19 10:56:47;;;;;;;3.38;2.65;;;20.60;34.70;;;;;;5095433;28;20054;-9
2022/12/19 10:59:19;;;;;;;3.22;2.58;;;20.60;34.70;;;;;;5095749;28;20048;-10
2022/12/19 11:01:47;;;;;;;3.40;2.88;;;20.60;34.70;;;;;;5094901;28;20075;-10
2022/12/19 11:04:18;;;;;;;4.45;2.80;;;20.60;34.70;;;;;;5095054;28;20055;-10
2022/12/19 11:07:03;;;;;;;4.43;3.55;;;20.60;35.20;;;;;;5095066;28;20128;-11
2022/12/19 11:09:30;;;;;;;4.60;3.22;;;20.60;34.60;;;;;;5095169;28;20058;-10
2022/12/19 11:12:00;;;;;;;3.20;2.78;;;20.60;34.70;;;;;;5095210;28;20044;-10
2022/12/19 11:14:29;;;;;;;3.65;2.92;;;20.60;34.70;;;;;;5094560;28;20056;-10
2022/12/19 11:16:55;;;;;;;3.75;3.15;;;20.70;34.70;;;;;;5094229;28;20095;-10
2022/12/19 11:19:21;;;;;;;3.13;2.83;;;20.70;34.70;;;;;;5093599;28;20080;-10
2022/12/19 11:21:47;;;;;;;3.33;2.70;;;20.60;34.70;;;;;;5093089;28;20459;-11
2022/12/19 11:24:24;;;;;;;4.15;2.80;;;20.60;34.70;;;;;;5092760;28;20044;-11
2022/12/19 11:26:52;;;;;;;3.20;2.85;;;20.70;34.70;;;;;;5092881;28;20070;-11
2022/12/19 11:29:39;;;;;;;3.22;2.92;;;20.60;34.70;;;;;;5093567;28;20052;-10
2022/12/19 11:32:38;;;;;;;5.20;2.78;;;20.70;34.70;;;;;;5093685;28;20127;-10
2022/12/19 11:35:26;;;;;;;3.50;3.10;;;20.70;34.60;;;;;;5092251;28;20048;-10
2022/12/19 11:37:57;;;;;;;3.55;2.58;;;20.70;34.60;;;;;;5090864;28;20048;-12
2022/12/19 11:40:34;;;;;;;3.03;2.72;;;20.70;34.60;;;;;;5074612;28;20512;-12
2022/12/19 11:43:19;;;;;;;4.28;3.17;;;20.70;34.60;;;;;;5093449;28;20052;-11
2022/12/19 11:45:57;;;;;;;4.00;3.40;;;20.80;34.60;;;;;;5093567;28;20044;-11
2022/12/19 11:48:46;;;;;;;6.82;3.05;;;20.70;34.60;;;;;;5094263;28;20048;-11
2022/12/19 11:51:51;;;;;;;3.45;3.05;;;20.70;34.50;;;;;;5094692;28;20052;-11
2022/12/19 11:54:40;;;;;;;4.25;2.83;;;20.80;34.60;;;;;;5076212;28;20047;-11
2022/12/19 11:57:10;;;;;;;3.70;3.15;;;20.80;34.60;;;;;;5075865;28;20129;-11
2022/12/19 11:59:38;;;;;;;3.90;3.33;;;20.80;34.60;;;;;;5094271;28;20048;-11
2022/12/19 12:02:35;;;;;;;3.05;2.60;;;20.80;34.60;;;;;;5094203;28;20075;-11
2022/12/19 12:05:04;;;;;;;4.45;2.97;;;20.70;34.60;;;;;;5093978;28;20529;-11
2022/12/19 12:07:37;;;;;;;3.20;2.85;;;20.80;34.60;;;;;;5094150;28;20044;-11
2022/12/19 12:10:17;;;;;;;3.08;2.80;;;20.80;34.60;;;;;;5094038;28;20059;-11
2022/12/19 12:12:49;;;;;;;3.88;3.05;;;20.70;34.60;;;;;;5094270;28;20048;-11
2022/12/19 12:15:18;;;;;;;3.75;2.83;;;20.70;34.60;;;;;;5094177;28;20063;-11
2022/12/19 12:18:14;;;;;;;3.22;2.83;;;20.70;34.60;;;;;;5074689;28;20121;-11
2022/12/19 12:20:39;;;;;;;4.25;2.83;;;20.70;34.60;;;;;;5093933;28;20052;-11
2022/12/19 12:23:40;;;;;;;2.90;2.60;;;20.70;34.70;;;;;;5093877;28;20424;-11
2022/12/19 12:26:22;;;;;;;2.53;2.33;;;20.70;34.70;;;;;;5086512;28;20040;-12
2022/12/19 12:28:53;;;;;;;3.30;3.00;;;20.70;34.60;;;;;;5091799;28;20048;-12
2022/12/19 12:31:42;;;;;;;3.70;2.50;;;20.70;34.60;;;;;;5092324;28;20044;-12
2022/12/19 12:34:24;;;;;;;3.25;2.95;;;20.70;34.60;;;;;;5093049;28;20079;-12
2022/12/19 12:36:55;;;;;;;3.10;2.60;;;20.70;34.60;;;;;;5093331;28;20059;-12
2022/12/19 12:39:42;;;;;;;5.22;2.95;;;20.70;34.60;;;;;;5093278;28;20048;-12
2022/12/19 12:42:41;;;;;;;3.13;2.65;;;20.70;34.70;;;;;;5093300;28;20054;-12
2022/12/19 12:45:24;;;;;;;3.58;2.70;;;20.70;34.60;;;;;;5091687;28;20135;-12
2022/12/19 12:47:51;;;;;;;3.10;2.63;;;20.70;34.60;;;;;;5091992;28;20048;-12
2022/12/19 12:50:23;;;;;;;3.70;3.10;;;20.70;34.70;;;;;;5092562;28;20051;-12
2022/12/19 12:52:54;;;;;;;3.10;2.72;;;20.70;34.70;;;;;;5092772;28;20072;-12
2022/12/19 12:55:31;;;;;;;3.65;2.78;;;20.70;34.70;;;;;;5073596;28;20498;-11
2022/12/19 12:57:58;;;;;;;3.08;2.75;;;20.70;34.70;;;;;;5093180;28;20056;-12
2022/12/19 13:00:27;;;;;;;2.78;2.40;;;20.70;34.70;;;;;;5093218;28;20044;-11
2022/12/19 13:03:14;;;;;;;3.03;2.35;;;20.70;34.70;;;;;;5093578;28;20463;-11
2022/12/19 13:05:53;;;;;;;2.90;2.60;;;20.70;34.70;;;;;;5093446;28;20040;-11
2022/12/19 13:08:38;;;;;;;2.65;2.45;;;20.70;34.70;;;;;;5093205;28;20052;-11
2022/12/19 13:14:41;;;;;;;3.10;2.53;;;20.70;34.70;;;;;;5089172;28;20071;-11
2022/12/19 13:17:09;;;;;;;4.13;2.75;;;20.70;34.60;;;;;;5093207;28;20082;-11
2022/12/19 13:19:57;;;;;;;3.15;2.60;;;20.70;34.70;;;;;;5093219;28;20405;-11